sensor_id;sensor_type;location;lat;lon;timestamp;temperature;humidity
34837;DHT22;21053;50.848;4.652;2022-10-16T00:01:08;13.80;99.90
34837;DHT22;21053;50.848;4.652;2022-10-16T00:03:35;13.80;99.90
34837;DHT22;21053;50.848;4.652;2022-10-16T00:06:03;13.80;99.90
34837;DHT22;21053;50.848;4.652;2022-10-16T00:08:29;13.70;99.90
34837;DHT22;21053;50.848;4.652;2022-10-16T00:11:06;13.80;99.90
34837;DHT22;21053;50.848;4.652;2022-10-16T00:13:36;13.80;99.90
34837;DHT22;21053;50.848;4.652;2022-10-16T00:16:05;13.80;99.90
34837;DHT22;21053;50.848;4.652;2022-10-16T00:18:34;13.70;99.90
34837;DHT22;21053;50.848;4.652;2022-10-16T00:21:12;13.60;99.90
34837;DHT22;21053;50.848;4.652;2022-10-16T00:23:41;13.60;99.90
34837;DHT22;21053;50.848;4.652;2022-10-16T00:26:15;13.60;99.90
34837;DHT22;21053;50.848;4.652;2022-10-16T00:28:46;13.50;99.90
34837;DHT22;21053;50.848;4.652;2022-10-16T00:31:16;13.50;99.90
34837;DHT22;21053;50.848;4.652;2022-10-16T00:33:43;13.50;99.90
34837;DHT22;21053;50.848;4.652;2022-10-16T00:36:13;13.50;99.90
34837;DHT22;21053;50.848;4.652;2022-10-16T00:38:40;13.40;99.90
34837;DHT22;21053;50.848;4.652;2022-10-16T00:41:12;13.50;99.90
34837;DHT22;21053;50.848;4.652;2022-10-16T00:43:47;13.40;99.90
34837;DHT22;21053;50.848;4.652;2022-10-16T00:46:28;13.50;99.90
34837;DHT22;21053;50.848;4.652;2022-10-16T00:51:39;13.50;99.90
34837;DHT22;21053;50.848;4.652;2022-10-16T00:54:27;13.50;99.90
34837;DHT22;21053;50.848;4.652;2022-10-16T00:56:57;13.50;99.90
34837;DHT22;21053;50.848;4.652;2022-10-16T00:59:31;13.50;99.90
34837;DHT22;21053;50.848;4.652;2022-10-16T01:01:59;13.70;99.90
34837;DHT22;21053;50.848;4.652;2022-10-16T01:04:35;13.70;99.90
34837;DHT22;21053;50.848;4.652;2022-10-16T01:12:57;13.70;99.90
34837;DHT22;21053;50.848;4.652;2022-10-16T01:15:34;13.70;99.90
34837;DHT22;21053;50.848;4.652;2022-10-16T01:18:08;13.70;99.90
34837;DHT22;21053;50.848;4.652;2022-10-16T01:21:02;13.60;99.90
34837;DHT22;21053;50.848;4.652;2022-10-16T01:23:51;13.70;99.90
34837;DHT22;21053;50.848;4.652;2022-10-16T01:29:18;13.60;99.90
34837;DHT22;21053;50.848;4.652;2022-10-16T01:31:50;13.50;99.90
34837;DHT22;21053;50.848;4.652;2022-10-16T01:34:25;13.60;99.90
34837;DHT22;21053;50.848;4.652;2022-10-16T01:37:02;13.50;99.90
34837;DHT22;21053;50.848;4.652;2022-10-16T01:39:35;13.60;99.90
34837;DHT22;21053;50.848;4.652;2022-10-16T01:42:09;13.60;99.90
34837;DHT22;21053;50.848;4.652;2022-10-16T01:44:39;13.60;99.90
34837;DHT22;21053;50.848;4.652;2022-10-16T01:47:08;13.60;99.90
34837;DHT22;21053;50.848;4.652;2022-10-16T01:49:37;13.70;99.90
34837;DHT22;21053;50.848;4.652;2022-10-16T01:52:08;13.70;99.90
34837;DHT22;21053;50.848;4.652;2022-10-16T01:54:39;13.60;99.90
34837;DHT22;21053;50.848;4.652;2022-10-16T01:57:08;13.60;99.90
34837;DHT22;21053;50.848;4.652;2022-10-16T01:59:40;13.60;99.90
34837;DHT22;21053;50.848;4.652;2022-10-16T02:02:10;13.60;99.90
34837;DHT22;21053;50.848;4.652;2022-10-16T02:04:42;13.50;99.90
34837;DHT22;21053;50.848;4.652;2022-10-16T02:07:10;13.50;99.90
34837;DHT22;21053;50.848;4.652;2022-10-16T02:09:36;13.50;99.90
34837;DHT22;21053;50.848;4.652;2022-10-16T02:12:28;13.50;99.90
34837;DHT22;21053;50.848;4.652;2022-10-16T02:14:58;13.40;99.90
34837;DHT22;21053;50.848;4.652;2022-10-16T02:17:27;13.40;99.90
34837;DHT22;21053;50.848;4.652;2022-10-16T02:19:56;13.40;99.90
34837;DHT22;21053;50.848;4.652;2022-10-16T02:22:42;13.50;99.90
34837;DHT22;21053;50.848;4.652;2022-10-16T02:28:58;13.50;99.90
34837;DHT22;21053;50.848;4.652;2022-10-16T02:31:03;13.60;99.90
34837;DHT22;21053;50.848;4.652;2022-10-16T02:33:31;13.60;99.90
34837;DHT22;21053;50.848;4.652;2022-10-16T02:36:02;13.60;99.90
34837;DHT22;21053;50.848;4.652;2022-10-16T02:38:29;13.60;99.90
34837;DHT22;21053;50.848;4.652;2022-10-16T02:40:57;13.50;99.90
34837;DHT22;21053;50.848;4.652;2022-10-16T02:43:24;13.60;99.90
34837;DHT22;21053;50.848;4.652;2022-10-16T02:45:51;13.50;99.90
34837;DHT22;21053;50.848;4.652;2022-10-16T02:48:23;13.50;99.90
34837;DHT22;21053;50.848;4.652;2022-10-16T02:50:48;13.50;99.90
34837;DHT22;21053;50.848;4.652;2022-10-16T02:53:14;13.50;99.90
34837;DHT22;21053;50.848;4.652;2022-10-16T02:55:43;13.40;99.90
34837;DHT22;21053;50.848;4.652;2022-10-16T02:58:09;13.40;99.90
34837;DHT22;21053;50.848;4.652;2022-10-16T03:00:36;13.30;99.90
34837;DHT22;21053;50.848;4.652;2022-10-16T03:03:03;13.40;99.90
34837;DHT22;21053;50.848;4.652;2022-10-16T03:05:30;13.40;99.90
34837;DHT22;21053;50.848;4.652;2022-10-16T03:07:58;13.40;99.90
34837;DHT22;21053;50.848;4.652;2022-10-16T03:10:26;13.30;99.90
34837;DHT22;21053;50.848;4.652;2022-10-16T03:12:53;13.30;99.90
34837;DHT22;21053;50.848;4.652;2022-10-16T03:15:18;13.30;99.90
34837;DHT22;21053;50.848;4.652;2022-10-16T03:17:47;13.30;99.90
34837;DHT22;21053;50.848;4.652;2022-10-16T03:20:15;13.30;99.90
34837;DHT22;21053;50.848;4.652;2022-10-16T03:22:41;13.30;99.90
34837;DHT22;21053;50.848;4.652;2022-10-16T03:25:07;13.30;99.90
34837;DHT22;21053;50.848;4.652;2022-10-16T03:27:32;13.30;99.90
34837;DHT22;21053;50.848;4.652;2022-10-16T03:30:04;13.20;99.90
34837;DHT22;21053;50.848;4.652;2022-10-16T03:32:30;13.20;99.90
34837;DHT22;21053;50.848;4.652;2022-10-16T03:34:58;13.30;99.90
34837;DHT22;21053;50.848;4.652;2022-10-16T03:37:25;13.30;99.90
34837;DHT22;21053;50.848;4.652;2022-10-16T03:39:53;13.30;99.90
34837;DHT22;21053;50.848;4.652;2022-10-16T03:42:22;13.30;99.90
34837;DHT22;21053;50.848;4.652;2022-10-16T03:44:49;13.30;99.90
34837;DHT22;21053;50.848;4.652;2022-10-16T03:47:15;13.30;99.90
34837;DHT22;21053;50.848;4.652;2022-10-16T03:49:49;13.30;99.90
34837;DHT22;21053;50.848;4.652;2022-10-16T03:52:16;13.40;99.90
34837;DHT22;21053;50.848;4.652;2022-10-16T03:54:43;13.40;99.90
34837;DHT22;21053;50.848;4.652;2022-10-16T03:57:10;13.40;99.90
34837;DHT22;21053;50.848;4.652;2022-10-16T03:59:38;13.30;99.90
34837;DHT22;21053;50.848;4.652;2022-10-16T04:02:06;13.30;99.90
34837;DHT22;21053;50.848;4.652;2022-10-16T04:04:33;13.30;99.90
34837;DHT22;21053;50.848;4.652;2022-10-16T04:06:59;13.40;99.90
34837;DHT22;21053;50.848;4.652;2022-10-16T04:09:25;13.40;99.90
34837;DHT22;21053;50.848;4.652;2022-10-16T04:11:53;13.40;99.90
34837;DHT22;21053;50.848;4.652;2022-10-16T04:14:19;13.40;99.90
34837;DHT22;21053;50.848;4.652;2022-10-16T04:16:45;13.40;99.90
34837;DHT22;21053;50.848;4.652;2022-10-16T04:19:13;13.50;99.90
34837;DHT22;21053;50.848;4.652;2022-10-16T04:21:41;13.50;99.90
34837;DHT22;21053;50.848;4.652;2022-10-16T04:24:08;13.50;99.90
34837;DHT22;21053;50.848;4.652;2022-10-16T04:26:34;13.60;99.90
34837;DHT22;21053;50.848;4.652;2022-10-16T04:29:01;13.60;99.90
34837;DHT22;21053;50.848;4.652;2022-10-16T04:31:27;13.60;99.90
34837;DHT22;21053;50.848;4.652;2022-10-16T04:33:54;13.60;99.90
34837;DHT22;21053;50.848;4.652;2022-10-16T04:36:23;13.60;99.90
34837;DHT22;21053;50.848;4.652;2022-10-16T04:38:49;13.60;99.90
34837;DHT22;21053;50.848;4.652;2022-10-16T04:41:17;13.60;99.90
34837;DHT22;21053;50.848;4.652;2022-10-16T04:43:44;13.60;99.90
34837;DHT22;21053;50.848;4.652;2022-10-16T04:46:13;13.60;99.90
34837;DHT22;21053;50.848;4.652;2022-10-16T04:48:39;13.60;99.90
34837;DHT22;21053;50.848;4.652;2022-10-16T04:51:04;13.50;99.90
34837;DHT22;21053;50.848;4.652;2022-10-16T04:53:30;13.50;99.90
34837;DHT22;21053;50.848;4.652;2022-10-16T04:55:59;13.50;99.90
34837;DHT22;21053;50.848;4.652;2022-10-16T04:58:27;13.40;99.90
34837;DHT22;21053;50.848;4.652;2022-10-16T05:00:59;13.40;99.90
34837;DHT22;21053;50.848;4.652;2022-10-16T05:03:25;13.50;99.90
34837;DHT22;21053;50.848;4.652;2022-10-16T05:05:53;13.50;99.90
34837;DHT22;21053;50.848;4.652;2022-10-16T05:08:24;13.40;99.90
34837;DHT22;21053;50.848;4.652;2022-10-16T05:10:51;13.40;99.90
34837;DHT22;21053;50.848;4.652;2022-10-16T05:13:20;13.50;99.90
34837;DHT22;21053;50.848;4.652;2022-10-16T05:15:49;13.40;99.90
34837;DHT22;21053;50.848;4.652;2022-10-16T05:18:18;13.50;99.90
34837;DHT22;21053;50.848;4.652;2022-10-16T05:20:44;13.60;99.90
34837;DHT22;21053;50.848;4.652;2022-10-16T05:23:10;13.50;99.90
34837;DHT22;21053;50.848;4.652;2022-10-16T05:25:38;13.60;99.90
34837;DHT22;21053;50.848;4.652;2022-10-16T05:28:06;13.60;99.90
34837;DHT22;21053;50.848;4.652;2022-10-16T05:30:37;13.70;99.90
34837;DHT22;21053;50.848;4.652;2022-10-16T05:33:04;13.80;99.90
34837;DHT22;21053;50.848;4.652;2022-10-16T05:35:33;13.70;99.90
34837;DHT22;21053;50.848;4.652;2022-10-16T05:37:59;13.70;99.90
34837;DHT22;21053;50.848;4.652;2022-10-16T05:40:28;13.70;99.90
34837;DHT22;21053;50.848;4.652;2022-10-16T05:42:57;13.70;99.90
34837;DHT22;21053;50.848;4.652;2022-10-16T05:45:23;13.70;99.90
34837;DHT22;21053;50.848;4.652;2022-10-16T05:47:52;13.70;99.90
34837;DHT22;21053;50.848;4.652;2022-10-16T05:50:20;13.60;99.90
34837;DHT22;21053;50.848;4.652;2022-10-16T05:52:48;13.60;99.90
34837;DHT22;21053;50.848;4.652;2022-10-16T05:55:17;13.60;99.90
34837;DHT22;21053;50.848;4.652;2022-10-16T05:57:46;13.50;99.90
34837;DHT22;21053;50.848;4.652;2022-10-16T06:00:18;13.50;99.90
34837;DHT22;21053;50.848;4.652;2022-10-16T06:02:44;13.50;99.90
34837;DHT22;21053;50.848;4.652;2022-10-16T06:05:12;13.50;99.90
34837;DHT22;21053;50.848;4.652;2022-10-16T06:07:40;13.50;99.90
34837;DHT22;21053;50.848;4.652;2022-10-16T06:10:06;13.50;99.90
34837;DHT22;21053;50.848;4.652;2022-10-16T06:12:35;13.50;99.90
34837;DHT22;21053;50.848;4.652;2022-10-16T06:15:03;13.50;99.90
34837;DHT22;21053;50.848;4.652;2022-10-16T06:17:31;13.50;99.90
34837;DHT22;21053;50.848;4.652;2022-10-16T06:19:58;13.50;99.90
34837;DHT22;21053;50.848;4.652;2022-10-16T06:22:24;13.60;99.90
34837;DHT22;21053;50.848;4.652;2022-10-16T06:24:51;13.60;99.90
34837;DHT22;21053;50.848;4.652;2022-10-16T06:27:20;13.60;99.90
34837;DHT22;21053;50.848;4.652;2022-10-16T06:29:47;13.60;99.90
34837;DHT22;21053;50.848;4.652;2022-10-16T06:32:13;13.60;99.90
34837;DHT22;21053;50.848;4.652;2022-10-16T06:34:39;13.60;99.90
34837;DHT22;21053;50.848;4.652;2022-10-16T06:37:07;13.60;99.90
34837;DHT22;21053;50.848;4.652;2022-10-16T06:39:47;13.60;99.90
34837;DHT22;21053;50.848;4.652;2022-10-16T06:42:13;13.60;99.90
34837;DHT22;21053;50.848;4.652;2022-10-16T06:44:39;13.60;99.90
34837;DHT22;21053;50.848;4.652;2022-10-16T06:47:06;13.70;99.90
34837;DHT22;21053;50.848;4.652;2022-10-16T06:49:32;13.60;99.90
34837;DHT22;21053;50.848;4.652;2022-10-16T06:51:59;13.60;99.90
34837;DHT22;21053;50.848;4.652;2022-10-16T06:54:24;13.70;99.90
34837;DHT22;21053;50.848;4.652;2022-10-16T06:56:51;13.70;99.90
34837;DHT22;21053;50.848;4.652;2022-10-16T06:59:19;13.80;99.90
34837;DHT22;21053;50.848;4.652;2022-10-16T07:01:48;13.80;99.90
34837;DHT22;21053;50.848;4.652;2022-10-16T07:04:15;13.90;99.90
34837;DHT22;21053;50.848;4.652;2022-10-16T07:06:41;14.00;99.90
34837;DHT22;21053;50.848;4.652;2022-10-16T07:09:09;14.00;99.90
34837;DHT22;21053;50.848;4.652;2022-10-16T07:11:39;14.10;99.90
34837;DHT22;21053;50.848;4.652;2022-10-16T07:14:15;14.30;99.90
34837;DHT22;21053;50.848;4.652;2022-10-16T07:16:41;14.30;99.90
34837;DHT22;21053;50.848;4.652;2022-10-16T07:19:08;14.50;99.90
34837;DHT22;21053;50.848;4.652;2022-10-16T07:21:37;14.50;99.90
34837;DHT22;21053;50.848;4.652;2022-10-16T07:24:06;14.60;99.90
34837;DHT22;21053;50.848;4.652;2022-10-16T07:26:36;14.60;99.90
34837;DHT22;21053;50.848;4.652;2022-10-16T07:29:03;14.70;99.90
34837;DHT22;21053;50.848;4.652;2022-10-16T07:31:32;14.80;99.90
34837;DHT22;21053;50.848;4.652;2022-10-16T07:34:01;14.80;99.90
34837;DHT22;21053;50.848;4.652;2022-10-16T07:36:29;14.90;99.90
34837;DHT22;21053;50.848;4.652;2022-10-16T07:38:58;14.90;99.90
34837;DHT22;21053;50.848;4.652;2022-10-16T07:41:26;15.00;99.90
34837;DHT22;21053;50.848;4.652;2022-10-16T07:43:53;15.00;99.90
34837;DHT22;21053;50.848;4.652;2022-10-16T07:46:21;15.00;99.90
34837;DHT22;21053;50.848;4.652;2022-10-16T07:48:47;15.10;99.90
34837;DHT22;21053;50.848;4.652;2022-10-16T07:51:15;15.20;99.90
34837;DHT22;21053;50.848;4.652;2022-10-16T07:53:43;15.30;99.90
34837;DHT22;21053;50.848;4.652;2022-10-16T07:56:15;15.30;99.90
34837;DHT22;21053;50.848;4.652;2022-10-16T07:58:43;15.20;99.90
34837;DHT22;21053;50.848;4.652;2022-10-16T08:01:12;15.30;99.90
34837;DHT22;21053;50.848;4.652;2022-10-16T08:03:45;15.30;99.90
34837;DHT22;21053;50.848;4.652;2022-10-16T08:06:11;15.40;99.90
34837;DHT22;21053;50.848;4.652;2022-10-16T08:08:37;15.40;99.90
34837;DHT22;21053;50.848;4.652;2022-10-16T08:11:03;15.50;99.90
34837;DHT22;21053;50.848;4.652;2022-10-16T08:14:01;15.50;99.90
34837;DHT22;21053;50.848;4.652;2022-10-16T08:16:27;15.50;99.90
34837;DHT22;21053;50.848;4.652;2022-10-16T08:18:52;15.50;99.90
34837;DHT22;21053;50.848;4.652;2022-10-16T08:21:22;15.80;99.90
34837;DHT22;21053;50.848;4.652;2022-10-16T08:23:50;15.90;99.90
34837;DHT22;21053;50.848;4.652;2022-10-16T08:26:18;15.90;99.90
34837;DHT22;21053;50.848;4.652;2022-10-16T08:28:44;15.90;99.90
34837;DHT22;21053;50.848;4.652;2022-10-16T08:31:12;16.00;99.90
34837;DHT22;21053;50.848;4.652;2022-10-16T08:33:42;16.10;99.90
34837;DHT22;21053;50.848;4.652;2022-10-16T08:36:10;16.10;99.90
34837;DHT22;21053;50.848;4.652;2022-10-16T08:38:37;16.10;99.90
34837;DHT22;21053;50.848;4.652;2022-10-16T08:44:25;16.10;99.90
34837;DHT22;21053;50.848;4.652;2022-10-16T08:49:33;16.20;99.90
34837;DHT22;21053;50.848;4.652;2022-10-16T08:52:00;16.30;99.90
34837;DHT22;21053;50.848;4.652;2022-10-16T08:54:37;16.40;99.90
34837;DHT22;21053;50.848;4.652;2022-10-16T08:58:58;16.50;99.90
34837;DHT22;21053;50.848;4.652;2022-10-16T09:01:32;16.60;99.90
34837;DHT22;21053;50.848;4.652;2022-10-16T09:04:30;16.60;99.90
34837;DHT22;21053;50.848;4.652;2022-10-16T09:07:32;16.70;99.90
34837;DHT22;21053;50.848;4.652;2022-10-16T09:15:39;16.80;99.90
34837;DHT22;21053;50.848;4.652;2022-10-16T09:21:00;17.00;99.90
34837;DHT22;21053;50.848;4.652;2022-10-16T09:23:32;17.10;99.90
34837;DHT22;21053;50.848;4.652;2022-10-16T09:26:01;17.10;99.90
34837;DHT22;21053;50.848;4.652;2022-10-16T09:28:28;17.20;99.90
34837;DHT22;21053;50.848;4.652;2022-10-16T09:30:54;17.30;99.90
34837;DHT22;21053;50.848;4.652;2022-10-16T09:33:33;17.50;99.90
34837;DHT22;21053;50.848;4.652;2022-10-16T09:35:59;17.60;99.90
34837;DHT22;21053;50.848;4.652;2022-10-16T09:38:28;18.40;99.90
34837;DHT22;21053;50.848;4.652;2022-10-16T09:41:00;18.30;99.90
34837;DHT22;21053;50.848;4.652;2022-10-16T09:46:06;20.20;99.90
34837;DHT22;21053;50.848;4.652;2022-10-16T09:48:43;20.20;99.90
34837;DHT22;21053;50.848;4.652;2022-10-16T09:51:23;20.00;99.90
34837;DHT22;21053;50.848;4.652;2022-10-16T09:56:30;19.60;99.90
34837;DHT22;21053;50.848;4.652;2022-10-16T09:59:01;20.00;99.90
34837;DHT22;21053;50.848;4.652;2022-10-16T10:01:52;20.70;99.90
34837;DHT22;21053;50.848;4.652;2022-10-16T10:04:22;22.10;99.90
34837;DHT22;21053;50.848;4.652;2022-10-16T10:07:16;23.10;98.30
34837;DHT22;21053;50.848;4.652;2022-10-16T10:11:56;24.40;95.40
34837;DHT22;21053;50.848;4.652;2022-10-16T10:14:27;24.60;93.50
34837;DHT22;21053;50.848;4.652;2022-10-16T10:19:50;25.10;93.80
34837;DHT22;21053;50.848;4.652;2022-10-16T10:30:37;26.60;90.70
34837;DHT22;21053;50.848;4.652;2022-10-16T10:36:25;27.60;84.70
34837;DHT22;21053;50.848;4.652;2022-10-16T10:38:59;27.90;83.50
34837;DHT22;21053;50.848;4.652;2022-10-16T11:06:33;26.90;83.60
34837;DHT22;21053;50.848;4.652;2022-10-16T11:09:18;27.30;83.00
34837;DHT22;21053;50.848;4.652;2022-10-16T11:14:46;25.60;86.90
34837;DHT22;21053;50.848;4.652;2022-10-16T11:17:38;25.40;84.70
34837;DHT22;21053;50.848;4.652;2022-10-16T11:25:52;23.00;92.00
34837;DHT22;21053;50.848;4.652;2022-10-16T11:28:39;22.70;94.70
34837;DHT22;21053;50.848;4.652;2022-10-16T11:36:39;26.80;83.20
34837;DHT22;21053;50.848;4.652;2022-10-16T11:44:37;26.30;83.30
34837;DHT22;21053;50.848;4.652;2022-10-16T11:47:17;25.40;87.00
34837;DHT22;21053;50.848;4.652;2022-10-16T11:49:47;26.00;84.00
34837;DHT22;21053;50.848;4.652;2022-10-16T11:52:39;26.70;84.80
34837;DHT22;21053;50.848;4.652;2022-10-16T11:55:18;26.20;84.20
34837;DHT22;21053;50.848;4.652;2022-10-16T11:57:54;25.50;88.60
34837;DHT22;21053;50.848;4.652;2022-10-16T12:00:39;24.60;88.60
34837;DHT22;21053;50.848;4.652;2022-10-16T12:03:20;23.70;90.10
34837;DHT22;21053;50.848;4.652;2022-10-16T12:08:26;22.70;93.10
34837;DHT22;21053;50.848;4.652;2022-10-16T12:10:53;22.50;92.50
34837;DHT22;21053;50.848;4.652;2022-10-16T12:13:36;22.20;94.40
34837;DHT22;21053;50.848;4.652;2022-10-16T12:18:44;22.20;93.60
34837;DHT22;21053;50.848;4.652;2022-10-16T12:21:11;22.30;93.80
34837;DHT22;21053;50.848;4.652;2022-10-16T12:26:33;22.70;93.90
34837;DHT22;21053;50.848;4.652;2022-10-16T12:31:43;22.80;92.50
34837;DHT22;21053;50.848;4.652;2022-10-16T12:34:45;22.60;93.30
34837;DHT22;21053;50.848;4.652;2022-10-16T12:37:20;22.50;92.60
34837;DHT22;21053;50.848;4.652;2022-10-16T12:39:48;22.10;94.80
34837;DHT22;21053;50.848;4.652;2022-10-16T12:44:56;22.00;93.80
34837;DHT22;21053;50.848;4.652;2022-10-16T12:49:59;21.70;94.70
34837;DHT22;21053;50.848;4.652;2022-10-16T12:52:37;21.60;95.30
34837;DHT22;21053;50.848;4.652;2022-10-16T12:55:17;21.50;95.90
34837;DHT22;21053;50.848;4.652;2022-10-16T13:00:57;21.30;95.60
34837;DHT22;21053;50.848;4.652;2022-10-16T13:03:43;21.20;97.40
34837;DHT22;21053;50.848;4.652;2022-10-16T13:06:33;21.10;94.70
34837;DHT22;21053;50.848;4.652;2022-10-16T13:17:42;20.90;97.70
34837;DHT22;21053;50.848;4.652;2022-10-16T13:23:05;21.10;97.20
34837;DHT22;21053;50.848;4.652;2022-10-16T13:26:01;21.30;94.40
34837;DHT22;21053;50.848;4.652;2022-10-16T13:28:33;21.30;95.30
34837;DHT22;21053;50.848;4.652;2022-10-16T13:31:03;21.10;96.70
34837;DHT22;21053;50.848;4.652;2022-10-16T13:33:36;21.10;96.90
34837;DHT22;21053;50.848;4.652;2022-10-16T13:36:04;21.00;97.00
34837;DHT22;21053;50.848;4.652;2022-10-16T13:38:35;20.90;96.90
34837;DHT22;21053;50.848;4.652;2022-10-16T13:41:16;21.00;96.20
34837;DHT22;21053;50.848;4.652;2022-10-16T13:43:51;21.00;97.10
34837;DHT22;21053;50.848;4.652;2022-10-16T13:46:23;21.20;97.50
34837;DHT22;21053;50.848;4.652;2022-10-16T13:49:04;21.60;95.90
34837;DHT22;21053;50.848;4.652;2022-10-16T13:51:32;21.80;96.40
34837;DHT22;21053;50.848;4.652;2022-10-16T13:53:59;21.70;95.90
34837;DHT22;21053;50.848;4.652;2022-10-16T13:56:29;21.60;95.70
34837;DHT22;21053;50.848;4.652;2022-10-16T13:59:06;21.40;96.30
34837;DHT22;21053;50.848;4.652;2022-10-16T14:01:46;21.30;96.20
34837;DHT22;21053;50.848;4.652;2022-10-16T14:04:13;21.20;97.10
34837;DHT22;21053;50.848;4.652;2022-10-16T14:06:48;21.10;97.30
34837;DHT22;21053;50.848;4.652;2022-10-16T14:09:24;21.10;97.80
34837;DHT22;21053;50.848;4.652;2022-10-16T14:12:03;21.10;98.10
34837;DHT22;21053;50.848;4.652;2022-10-16T14:14:53;21.10;98.50
34837;DHT22;21053;50.848;4.652;2022-10-16T14:17:22;21.10;98.20
34837;DHT22;21053;50.848;4.652;2022-10-16T14:19:52;21.00;97.80
34837;DHT22;21053;50.848;4.652;2022-10-16T14:22:38;21.00;97.70
34837;DHT22;21053;50.848;4.652;2022-10-16T14:28:20;20.90;98.90
34837;DHT22;21053;50.848;4.652;2022-10-16T14:31:00;20.90;99.50
34837;DHT22;21053;50.848;4.652;2022-10-16T14:33:33;20.90;99.50
34837;DHT22;21053;50.848;4.652;2022-10-16T14:38:38;20.90;99.30
34837;DHT22;21053;50.848;4.652;2022-10-16T14:41:05;20.90;99.20
34837;DHT22;21053;50.848;4.652;2022-10-16T14:43:41;20.90;98.20
34837;DHT22;21053;50.848;4.652;2022-10-16T14:46:15;21.00;98.60
34837;DHT22;21053;50.848;4.652;2022-10-16T14:48:45;21.00;98.80
34837;DHT22;21053;50.848;4.652;2022-10-16T14:51:17;21.00;98.70
34837;DHT22;21053;50.848;4.652;2022-10-16T14:53:45;21.10;98.00
34837;DHT22;21053;50.848;4.652;2022-10-16T14:56:25;21.10;98.20
34837;DHT22;21053;50.848;4.652;2022-10-16T14:58:54;21.10;98.50
34837;DHT22;21053;50.848;4.652;2022-10-16T15:01:24;21.00;98.20
34837;DHT22;21053;50.848;4.652;2022-10-16T15:03:52;20.90;98.20
34837;DHT22;21053;50.848;4.652;2022-10-16T15:06:21;20.80;98.40
34837;DHT22;21053;50.848;4.652;2022-10-16T15:08:53;20.80;98.50
34837;DHT22;21053;50.848;4.652;2022-10-16T15:11:19;20.80;98.60
34837;DHT22;21053;50.848;4.652;2022-10-16T15:13:48;20.80;98.60
34837;DHT22;21053;50.848;4.652;2022-10-16T15:16:17;20.70;99.40
34837;DHT22;21053;50.848;4.652;2022-10-16T15:18:46;20.60;99.30
34837;DHT22;21053;50.848;4.652;2022-10-16T15:21:32;20.60;99.90
34837;DHT22;21053;50.848;4.652;2022-10-16T15:23:59;20.50;99.90
34837;DHT22;21053;50.848;4.652;2022-10-16T15:26:31;20.50;99.90
34837;DHT22;21053;50.848;4.652;2022-10-16T15:28:59;20.40;99.90
34837;DHT22;21053;50.848;4.652;2022-10-16T15:31:27;20.30;99.90
34837;DHT22;21053;50.848;4.652;2022-10-16T15:33:56;20.30;99.90
34837;DHT22;21053;50.848;4.652;2022-10-16T15:36:34;20.30;99.90
34837;DHT22;21053;50.848;4.652;2022-10-16T15:39:09;20.20;99.90
34837;DHT22;21053;50.848;4.652;2022-10-16T15:41:37;20.00;99.90
34837;DHT22;21053;50.848;4.652;2022-10-16T15:44:03;19.90;99.90
34837;DHT22;21053;50.848;4.652;2022-10-16T15:46:32;19.90;99.90
34837;DHT22;21053;50.848;4.652;2022-10-16T15:49:02;19.90;99.90
34837;DHT22;21053;50.848;4.652;2022-10-16T15:51:31;19.80;99.90
34837;DHT22;21053;50.848;4.652;2022-10-16T15:53:59;19.80;99.90
34837;DHT22;21053;50.848;4.652;2022-10-16T15:56:29;19.60;99.90
34837;DHT22;21053;50.848;4.652;2022-10-16T15:58:59;19.50;99.90
34837;DHT22;21053;50.848;4.652;2022-10-16T16:01:25;19.40;99.90
34837;DHT22;21053;50.848;4.652;2022-10-16T16:03:57;19.40;99.90
34837;DHT22;21053;50.848;4.652;2022-10-16T16:06:24;19.50;99.90
34837;DHT22;21053;50.848;4.652;2022-10-16T16:08:53;19.50;99.90
34837;DHT22;21053;50.848;4.652;2022-10-16T16:11:21;19.40;99.90
34837;DHT22;21053;50.848;4.652;2022-10-16T16:13:49;19.40;99.90
34837;DHT22;21053;50.848;4.652;2022-10-16T16:16:17;19.20;99.90
34837;DHT22;21053;50.848;4.652;2022-10-16T16:18:45;19.00;99.90
34837;DHT22;21053;50.848;4.652;2022-10-16T16:21:12;19.00;99.90
34837;DHT22;21053;50.848;4.652;2022-10-16T16:23:39;18.90;99.90
34837;DHT22;21053;50.848;4.652;2022-10-16T16:26:15;18.90;99.90
34837;DHT22;21053;50.848;4.652;2022-10-16T16:28:48;18.80;99.90
34837;DHT22;21053;50.848;4.652;2022-10-16T16:31:16;18.80;99.90
34837;DHT22;21053;50.848;4.652;2022-10-16T16:33:42;18.80;99.90
34837;DHT22;21053;50.848;4.652;2022-10-16T16:36:10;18.90;99.90
34837;DHT22;21053;50.848;4.652;2022-10-16T16:38:38;18.80;99.90
34837;DHT22;21053;50.848;4.652;2022-10-16T16:41:16;18.80;99.90
34837;DHT22;21053;50.848;4.652;2022-10-16T16:43:45;18.60;99.90
34837;DHT22;21053;50.848;4.652;2022-10-16T16:46:14;18.50;99.90
34837;DHT22;21053;50.848;4.652;2022-10-16T16:48:41;18.40;99.90
34837;DHT22;21053;50.848;4.652;2022-10-16T16:51:15;18.30;99.90
34837;DHT22;21053;50.848;4.652;2022-10-16T16:53:44;18.20;99.90
34837;DHT22;21053;50.848;4.652;2022-10-16T16:56:10;18.10;99.90
34837;DHT22;21053;50.848;4.652;2022-10-16T16:58:39;18.00;99.90
34837;DHT22;21053;50.848;4.652;2022-10-16T17:01:09;18.10;99.90
34837;DHT22;21053;50.848;4.652;2022-10-16T17:03:36;18.00;99.90
34837;DHT22;21053;50.848;4.652;2022-10-16T17:06:07;18.20;99.90
34837;DHT22;21053;50.848;4.652;2022-10-16T17:08:34;18.30;99.90
34837;DHT22;21053;50.848;4.652;2022-10-16T17:11:03;18.50;99.90
34837;DHT22;21053;50.848;4.652;2022-10-16T17:13:31;18.40;99.90
34837;DHT22;21053;50.848;4.652;2022-10-16T17:15:59;18.30;99.90
34837;DHT22;21053;50.848;4.652;2022-10-16T17:18:25;18.10;99.90
34837;DHT22;21053;50.848;4.652;2022-10-16T17:20:52;18.10;99.90
34837;DHT22;21053;50.848;4.652;2022-10-16T17:23:20;17.90;99.90
34837;DHT22;21053;50.848;4.652;2022-10-16T17:25:47;18.10;99.90
34837;DHT22;21053;50.848;4.652;2022-10-16T17:28:13;18.00;99.90
34837;DHT22;21053;50.848;4.652;2022-10-16T17:30:41;17.70;99.90
34837;DHT22;21053;50.848;4.652;2022-10-16T17:33:11;17.60;99.90
34837;DHT22;21053;50.848;4.652;2022-10-16T17:35:44;17.90;99.90
34837;DHT22;21053;50.848;4.652;2022-10-16T17:38:12;17.80;99.90
34837;DHT22;21053;50.848;4.652;2022-10-16T17:40:40;17.80;99.90
34837;DHT22;21053;50.848;4.652;2022-10-16T17:43:06;17.70;99.90
34837;DHT22;21053;50.848;4.652;2022-10-16T17:45:37;17.70;99.90
34837;DHT22;21053;50.848;4.652;2022-10-16T17:48:06;17.50;99.90
34837;DHT22;21053;50.848;4.652;2022-10-16T17:50:32;17.60;99.90
34837;DHT22;21053;50.848;4.652;2022-10-16T17:52:58;17.70;99.90
34837;DHT22;21053;50.848;4.652;2022-10-16T17:57:31;17.50;99.90
34837;DHT22;21053;50.848;4.652;2022-10-16T17:59:58;17.30;99.90
34837;DHT22;21053;50.848;4.652;2022-10-16T18:02:30;17.30;99.90
34837;DHT22;21053;50.848;4.652;2022-10-16T18:04:56;17.30;99.90
34837;DHT22;21053;50.848;4.652;2022-10-16T18:07:23;17.30;99.90